Hallock, MN (56728)

8:55 AM CST on February 25, 2017 (GMT -0600)
Hallock Municipal | | Change Station

Elev 817 ft 48.75 °N, 96.94 °W | Updated 21 minutes ago

Snow
Snow
19 °F
Feels Like 10 °F
N
7
Wind Variable Wind from South

Today
High -- | Low -- °F
--% Chance of Precip.
Yesterday
High -- | Low -- °F
Precip. -- in
Pressure 29.85 in
Visibility 7.0 miles
Clouds Scattered Clouds 600 ft
Mostly Cloudy 2500 ft
Overcast 3000 ft
Windchill 10 °F
Dew Point 16 °F
Humidity 86%
Rainfall 0.00 in
Snow Depth Not available.
7:16 AM 6:05 PM
Waning Crescent, 1% visible
METAR KHCO 251434Z AUTO 19006KT 7SM -SN SCT006 BKN025 OVC030 M07/M09 A2985 RMK AO2
Pressure 29.85 in
Visibility 7.0 miles
Clouds Scattered Clouds 600 ft
Mostly Cloudy 2500 ft
Overcast 3000 ft
Windchill 10 °F
Dew Point 16 °F
Humidity 86%
Rainfall 0.00 in
Snow Depth Not available.
7:16 AM 6:05 PM
Waning Crescent, 1% visible
METAR KHCO 251434Z AUTO 19006KT 7SM -SN SCT006 BKN025 OVC030 M07/M09 A2985 RMK AO2

Get Your Daily Forecast Email!

Thanks for signing up!

Be on the lookout for a verification email in your inbox.

You'll start receiving the daily forecast at 8 AM.

×

10-Day Weather Forecast

Almanac

Astronomy

Feb. 25, 2017 Rise Set
Actual Time
Civil Twilight
Nautical Twilight
Astronomical Twilight
Moon
Length of Visible Light
Length of Day
Tomorrow will be .
, % of the Moon is Illuminated

Today's Extremes

State Highs State Lows

Community

WunderPhotos

Upload Photos

1,962,540 photos uploaded!

WunderBlog® & News

Nearby

Air Quality

  Air Quality AQ Index Pollutant
Not available.

Snow Depth

Station Depth Elevation

Earthquake Activity

City Distance Mag. Time & Date
Minimum magnitude displayed is 2.5.

Coastal Water Temperatures

Place Temperature

Stations

Nearby Weather Stations

Station Location Temp. Windchill Dew Point Humidity Wind Precip. Elev Updated Type
                   

Watches & Warnings

There are currently no watches in effect.